Time;durP1;ratioP1;P1;durP2;ratioP2;P2;SDS_P1;SDS_P2;PMS_P1;PMS_P2;Temp;Humidity;BMP_temperature;BMP_pressure;BME280_temperature;BME280_humidity;BME280_pressure;Samples;Min_cycle;Max_cycle;Signal;HPM_P1;HPM_P2
2023/09/11 00:00:41;;;;;;;1.33;1.02;;;20.40;99.90;;;;;;5093734;28;20357;-63
2023/09/11 00:03:07;;;;;;;1.17;0.93;;;20.60;99.90;;;;;;5093627;28;20163;-62
2023/09/11 00:05:33;;;;;;;0.80;0.45;;;20.30;99.90;;;;;;5093672;28;20051;-62
2023/09/11 00:07:58;;;;;;;0.35;0.35;;;20.50;99.90;;;;;;5093638;28;20513;-62
2023/09/11 00:10:24;;;;;;;1.27;1.10;;;20.50;99.90;;;;;;5093306;28;20040;-63
2023/09/11 00:12:50;;;;;;;0.55;0.55;;;20.20;99.90;;;;;;5093449;28;20044;-63
2023/09/11 00:15:16;;;;;;;1.33;1.23;;;20.40;99.90;;;;;;5093461;28;20083;-63
2023/09/11 00:17:43;;;;;;;0.93;0.93;;;20.40;99.90;;;;;;5093488;28;20055;-63
2023/09/11 00:20:09;;;;;;;1.05;0.95;;;19.90;99.90;;;;;;5093483;28;20044;-62
2023/09/11 00:22:35;;;;;;;1.48;1.38;;;20.80;99.90;;;;;;5093259;28;20137;-63
2023/09/11 00:25:01;;;;;;;0.80;0.80;;;20.40;99.90;;;;;;5092611;28;20101;-64
2023/09/11 00:27:26;;;;;;;1.00;1.00;;;20.10;99.90;;;;;;5093040;28;20568;-63
2023/09/11 00:29:52;;;;;;;0.68;0.68;;;20.50;99.90;;;;;;5093259;28;20178;-63
2023/09/11 00:32:18;;;;;;;2.75;1.40;;;20.30;99.90;;;;;;5093139;28;20387;-63
2023/09/11 00:34:44;;;;;;;0.88;0.85;;;20.50;99.90;;;;;;5092803;28;20855;-63
2023/09/11 00:37:10;;;;;;;3.42;1.63;;;20.30;99.90;;;;;;5093281;28;20052;-63
2023/09/11 00:39:35;;;;;;;1.02;0.95;;;20.70;99.90;;;;;;5093035;28;20496;-63
2023/09/11 00:42:01;;;;;;;1.63;1.52;;;20.60;99.90;;;;;;5092907;28;20365;-62
2023/09/11 00:44:26;;;;;;;1.85;1.30;;;20.40;99.90;;;;;;5092937;28;20051;-63
2023/09/11 00:46:53;;;;;;;0.85;0.85;;;20.20;99.90;;;;;;5092908;28;20058;-63
2023/09/11 00:49:20;;;;;;;0.77;0.77;;;20.30;99.90;;;;;;5092521;28;20503;-63
2023/09/11 00:51:48;;;;;;;4.13;1.17;;;20.30;99.90;;;;;;5092434;28;20488;-63
2023/09/11 00:54:14;;;;;;;0.80;0.80;;;20.50;99.90;;;;;;5092491;28;20404;-63
2023/09/11 00:56:41;;;;;;;1.23;1.15;;;20.30;99.90;;;;;;5092745;28;20052;-64
2023/09/11 00:59:07;;;;;;;1.48;1.38;;;20.30;99.90;;;;;;5092617;28;20080;-62
2023/09/11 01:01:32;;;;;;;0.82;0.82;;;20.20;99.90;;;;;;5092375;28;20502;-63
2023/09/11 01:03:59;;;;;;;0.90;0.80;;;20.40;99.90;;;;;;5092755;28;20636;-64
2023/09/11 01:06:24;;;;;;;0.95;0.95;;;20.30;99.90;;;;;;5092733;28;20165;-63
2023/09/11 01:08:55;;;;;;;0.93;0.82;;;20.50;99.90;;;;;;5092545;28;20493;-63
2023/09/11 01:11:21;;;;;;;1.15;1.05;;;20.20;99.90;;;;;;5092502;28;20048;-63
2023/09/11 01:13:47;;;;;;;0.75;0.70;;;20.30;99.90;;;;;;5092341;28;20054;-63
2023/09/11 01:16:25;;;;;;;0.82;0.82;;;20.40;99.90;;;;;;5092315;28;20059;-63
2023/09/11 01:19:04;;;;;;;0.65;0.65;;;20.40;99.90;;;;;;5092294;28;20161;-62
2023/09/11 01:21:46;;;;;;;2.55;1.13;;;20.30;99.90;;;;;;5092188;28;20048;-64
2023/09/11 01:24:32;;;;;;;1.98;1.35;;;20.10;99.90;;;;;;5092262;28;20048;-63
2023/09/11 01:27:16;;;;;;;0.57;0.57;;;20.00;99.90;;;;;;5092271;28;20373;-62
2023/09/11 01:29:43;;;;;;;1.75;1.65;;;20.30;99.90;;;;;;5092170;28;20083;-64
2023/09/11 01:32:10;;;;;;;1.35;1.00;;;20.00;99.90;;;;;;5092081;28;20168;-62
2023/09/11 01:34:36;;;;;;;2.22;1.08;;;20.20;99.90;;;;;;5092078;28;20780;-62
2023/09/11 01:37:02;;;;;;;2.40;1.38;;;20.30;99.90;;;;;;5091735;28;20087;-63
2023/09/11 01:39:28;;;;;;;1.10;1.08;;;20.40;99.90;;;;;;5091970;28;20044;-63
2023/09/11 01:41:58;;;;;;;0.90;0.90;;;19.80;99.90;;;;;;5091916;28;20487;-63
2023/09/11 01:44:41;;;;;;;1.02;0.98;;;20.10;99.90;;;;;;5091953;28;20769;-63
2023/09/11 01:47:10;;;;;;;1.15;1.05;;;20.10;99.90;;;;;;5091967;28;20510;-63
2023/09/11 01:49:38;;;;;;;2.05;1.23;;;19.90;99.90;;;;;;5091844;28;20051;-63
2023/09/11 01:52:06;;;;;;;2.83;1.90;;;19.90;99.90;;;;;;5091816;28;20163;-63
2023/09/11 01:54:33;;;;;;;1.80;1.20;;;20.10;99.90;;;;;;5091769;28;20075;-63
2023/09/11 01:56:59;;;;;;;1.30;1.20;;;20.00;99.90;;;;;;5091696;28;20059;-62
2023/09/11 01:59:24;;;;;;;0.95;0.85;;;19.90;99.90;;;;;;5091405;28;20047;-63
2023/09/11 02:01:50;;;;;;;1.42;1.10;;;20.00;99.90;;;;;;5091488;28;20101;-63
2023/09/11 02:04:16;;;;;;;1.25;1.15;;;19.80;99.90;;;;;;5091675;28;20126;-64
2023/09/11 02:06:41;;;;;;;1.35;1.23;;;20.10;99.90;;;;;;5091706;28;20822;-63
2023/09/11 02:09:07;;;;;;;0.60;0.60;;;20.10;99.90;;;;;;5091687;28;20081;-63
2023/09/11 02:11:33;;;;;;;2.05;1.90;;;19.90;99.90;;;;;;5091660;28;20050;-63
2023/09/11 02:13:58;;;;;;;0.75;0.75;;;19.80;99.90;;;;;;5091623;28;20545;-62
2023/09/11 02:16:24;;;;;;;1.23;0.90;;;19.60;99.90;;;;;;5091592;28;20399;-63
2023/09/11 02:18:49;;;;;;;3.50;2.05;;;19.90;99.90;;;;;;5091259;28;20135;-64
2023/09/11 02:21:15;;;;;;;0.93;0.93;;;19.80;99.90;;;;;;5091553;28;20062;-63
2023/09/11 02:23:41;;;;;;;4.03;1.70;;;19.80;99.90;;;;;;5091480;28;20044;-63
2023/09/11 02:26:08;;;;;;;1.55;1.02;;;19.80;99.90;;;;;;5091479;28;20059;-62
2023/09/11 02:28:33;;;;;;;1.75;1.65;;;20.20;99.90;;;;;;5091545;28;20139;-63
2023/09/11 02:30:59;;;;;;;2.25;1.35;;;20.00;99.90;;;;;;5091539;28;20557;-63
2023/09/11 02:33:25;;;;;;;0.90;0.80;;;19.70;99.90;;;;;;5091525;28;20561;-62
2023/09/11 02:35:57;;;;;;;0.82;0.80;;;20.00;99.90;;;;;;5091567;28;20044;-63
2023/09/11 02:38:23;;;;;;;1.45;1.05;;;19.80;99.90;;;;;;5091363;28;20474;-62
2023/09/11 02:40:49;;;;;;;1.10;1.00;;;19.70;99.90;;;;;;5091689;28;20132;-63
2023/09/11 02:43:15;;;;;;;1.00;0.90;;;19.70;99.90;;;;;;5090195;28;20446;-62
2023/09/11 02:45:44;;;;;;;0.57;0.57;;;20.00;99.90;;;;;;5091611;28;20048;-62
2023/09/11 02:48:10;;;;;;;0.50;0.50;;;19.80;99.90;;;;;;5091368;28;20062;-62
2023/09/11 02:50:38;;;;;;;1.50;1.33;;;19.60;99.90;;;;;;5095133;28;20044;-62
2023/09/11 02:53:08;;;;;;;0.38;0.38;;;19.60;99.90;;;;;;5095148;28;20131;-62
2023/09/11 02:55:37;;;;;;;1.33;1.23;;;19.40;99.90;;;;;;5095238;28;20055;-62
2023/09/11 02:58:03;;;;;;;2.78;1.00;;;19.50;99.90;;;;;;5095208;28;20044;-63
2023/09/11 03:00:29;;;;;;;2.17;2.03;;;19.40;99.90;;;;;;5095287;28;20077;-62
2023/09/11 03:02:56;;;;;;;1.83;1.67;;;19.80;99.90;;;;;;5094525;28;20071;-62
2023/09/11 03:05:22;;;;;;;0.65;0.65;;;19.60;99.90;;;;;;5094909;28;20544;-62
2023/09/11 03:07:48;;;;;;;0.45;0.45;;;19.40;99.90;;;;;;5094831;28;20130;-62
2023/09/11 03:10:14;;;;;;;0.95;0.90;;;19.60;99.90;;;;;;5094838;28;20104;-62
2023/09/11 03:12:39;;;;;;;1.17;0.77;;;19.50;99.90;;;;;;5094792;28;20460;-62
2023/09/11 03:15:06;;;;;;;1.65;0.90;;;19.20;99.90;;;;;;5094674;28;20055;-63
2023/09/11 03:17:31;;;;;;;0.77;0.77;;;19.10;99.90;;;;;;5094667;28;20488;-63
2023/09/11 03:19:57;;;;;;;0.73;0.50;;;19.40;99.90;;;;;;5094958;28;20055;-63
2023/09/11 03:22:24;;;;;;;0.57;0.57;;;19.10;99.90;;;;;;5094664;28;20032;-62
2023/09/11 03:24:50;;;;;;;0.60;0.60;;;19.40;99.90;;;;;;5094540;28;20051;-63
2023/09/11 03:27:16;;;;;;;0.52;0.52;;;19.20;99.90;;;;;;5094425;28;20043;-62
2023/09/11 03:29:42;;;;;;;1.23;0.57;;;19.60;99.90;;;;;;5094404;28;20105;-62
2023/09/11 03:32:07;;;;;;;0.82;0.73;;;19.30;99.90;;;;;;5094610;28;20044;-62
2023/09/11 03:34:33;;;;;;;0.68;0.68;;;19.40;99.90;;;;;;5094262;28;20051;-62
2023/09/11 03:36:59;;;;;;;1.50;0.82;;;19.10;99.90;;;;;;5094493;28;20059;-62
2023/09/11 03:39:24;;;;;;;0.50;0.50;;;19.40;99.90;;;;;;5094165;28;20054;-62
2023/09/11 03:41:51;;;;;;;0.50;0.50;;;19.30;99.90;;;;;;5094096;28;20066;-62
2023/09/11 03:44:17;;;;;;;1.05;1.00;;;19.20;99.90;;;;;;5094109;28;20047;-62
2023/09/11 03:46:43;;;;;;;3.55;0.60;;;19.20;99.90;;;;;;5094050;28;20555;-62
2023/09/11 03:49:08;;;;;;;3.08;2.78;;;19.50;99.90;;;;;;5094028;28;20047;-63
2023/09/11 03:51:34;;;;;;;0.32;0.32;;;19.30;99.90;;;;;;5093998;28;20526;-62
2023/09/11 03:54:00;;;;;;;0.55;0.55;;;19.30;99.90;;;;;;5093894;28;20044;-63
2023/09/11 03:56:25;;;;;;;0.70;0.70;;;19.20;99.90;;;;;;5093842;28;20047;-62
2023/09/11 03:58:51;;;;;;;0.50;0.50;;;19.40;99.90;;;;;;5093894;28;20048;-62
2023/09/11 04:01:17;;;;;;;1.13;0.90;;;19.20;99.90;;;;;;5093652;28;20060;-63
2023/09/11 04:03:43;;;;;;;0.52;0.52;;;19.10;99.90;;;;;;5092350;28;20505;-63
2023/09/11 04:06:09;;;;;;;0.77;0.77;;;19.00;99.90;;;;;;5093698;28;20052;-63
2023/09/11 04:08:35;;;;;;;0.60;0.60;;;19.40;99.90;;;;;;5093744;28;20123;-63
2023/09/11 04:11:03;;;;;;;0.57;0.57;;;19.10;99.90;;;;;;5093927;28;20040;-62
2023/09/11 04:13:29;;;;;;;1.00;0.85;;;19.20;99.90;;;;;;5093656;28;20567;-62
2023/09/11 04:15:55;;;;;;;2.30;1.00;;;19.20;99.90;;;;;;5093487;28;20051;-62
2023/09/11 04:18:20;;;;;;;1.48;1.38;;;19.30;99.90;;;;;;5093496;28;20047;-63
2023/09/11 04:20:46;;;;;;;0.80;0.77;;;19.30;99.90;;;;;;5093428;28;20070;-62
2023/09/11 04:23:12;;;;;;;0.50;0.50;;;19.10;99.90;;;;;;5093316;28;20044;-63
2023/09/11 04:25:37;;;;;;;0.57;0.57;;;19.20;99.90;;;;;;5093312;28;20048;-63
2023/09/11 04:28:03;;;;;;;0.82;0.70;;;18.90;99.90;;;;;;5093230;28;20130;-63
2023/09/11 04:30:29;;;;;;;0.57;0.57;;;19.10;99.90;;;;;;5093290;28;20040;-62
2023/09/11 04:32:55;;;;;;;0.50;0.50;;;19.00;99.90;;;;;;5091923;28;20040;-63
2023/09/11 04:35:23;;;;;;;0.70;0.70;;;19.00;99.90;;;;;;5093112;28;20139;-62
2023/09/11 04:37:49;;;;;;;0.70;0.70;;;19.10;99.90;;;;;;5093067;28;20044;-63
2023/09/11 04:40:14;;;;;;;5.13;1.80;;;18.80;99.90;;;;;;5093027;28;20046;-62
2023/09/11 04:42:43;;;;;;;0.77;0.77;;;19.10;99.90;;;;;;5093002;28;20037;-62
2023/09/11 04:45:09;;;;;;;0.50;0.50;;;19.30;99.90;;;;;;5092865;28;20123;-62
2023/09/11 04:47:35;;;;;;;1.60;0.65;;;19.00;99.90;;;;;;5092893;28;20547;-62
2023/09/11 04:50:01;;;;;;;6.18;3.65;;;18.80;99.90;;;;;;5092906;28;20147;-62
2023/09/11 04:52:26;;;;;;;1.98;1.10;;;19.40;99.90;;;;;;5093002;28;20044;-63
2023/09/11 04:54:53;;;;;;;0.85;0.85;;;19.30;99.90;;;;;;5092970;28;20048;-63
2023/09/11 04:57:18;;;;;;;0.88;0.80;;;19.40;99.90;;;;;;5092768;28;20463;-62
2023/09/11 04:59:44;;;;;;;1.02;1.02;;;19.10;99.90;;;;;;5092666;28;20050;-62
2023/09/11 05:02:10;;;;;;;1.38;1.00;;;19.50;99.90;;;;;;5092493;28;20117;-62
2023/09/11 05:04:36;;;;;;;1.95;1.08;;;19.30;99.90;;;;;;5092688;28;20048;-62
2023/09/11 05:07:02;;;;;;;0.82;0.75;;;19.40;99.90;;;;;;5092539;28;20452;-62
2023/09/11 05:09:30;;;;;;;3.17;0.80;;;19.40;99.90;;;;;;5092522;28;20047;-62
2023/09/11 05:11:55;;;;;;;0.75;0.68;;;19.60;99.90;;;;;;5091843;28;20044;-62
2023/09/11 05:14:22;;;;;;;0.75;0.75;;;19.50;99.90;;;;;;5092667;28;20055;-62
2023/09/11 05:16:48;;;;;;;0.65;0.65;;;21.70;99.90;;;;;;5092336;28;20070;-63
2023/09/11 05:19:14;;;;;;;0.68;0.68;;;21.40;99.90;;;;;;5091998;28;20506;-62
2023/09/11 05:21:39;;;;;;;1.48;1.35;;;19.70;99.90;;;;;;5092196;28;20048;-63
2023/09/11 05:24:05;;;;;;;1.27;1.17;;;19.70;99.90;;;;;;5092156;28;20097;-62
2023/09/11 05:26:31;;;;;;;1.08;0.80;;;19.50;99.90;;;;;;5092065;28;20492;-62
2023/09/11 05:28:57;;;;;;;0.77;0.77;;;19.40;99.90;;;;;;5091861;28;20544;-62
2023/09/11 05:31:22;;;;;;;0.68;0.60;;;19.60;99.90;;;;;;5092185;28;20132;-62
2023/09/11 05:33:48;;;;;;;0.82;0.82;;;19.80;99.90;;;;;;5091821;28;20079;-63
2023/09/11 05:36:14;;;;;;;9.20;1.00;;;19.50;99.90;;;;;;5091804;28;20442;-63
2023/09/11 05:38:40;;;;;;;0.60;0.60;;;19.30;99.90;;;;;;5092083;28;20090;-63
2023/09/11 05:41:06;;;;;;;1.02;0.73;;;19.60;99.90;;;;;;5091949;28;20048;-62
2023/09/11 05:43:32;;;;;;;1.35;0.77;;;19.70;99.90;;;;;;5091819;28;20090;-62
2023/09/11 05:45:58;;;;;;;0.40;0.40;;;19.60;99.90;;;;;;5091911;28;20043;-63
2023/09/11 05:48:24;;;;;;;1.55;0.93;;;19.40;99.90;;;;;;5091915;28;20079;-63
2023/09/11 05:50:50;;;;;;;0.38;0.38;;;19.50;99.90;;;;;;5091850;28;20404;-62
2023/09/11 05:53:15;;;;;;;0.47;0.47;;;19.70;99.90;;;;;;5091812;28;20042;-62
2023/09/11 05:55:41;;;;;;;0.88;0.88;;;19.30;99.90;;;;;;5092098;28;20048;-63
2023/09/11 05:58:07;;;;;;;0.65;0.65;;;19.80;99.90;;;;;;5091787;28;20461;-62
2023/09/11 06:00:33;;;;;;;4.80;1.00;;;19.80;99.90;;;;;;5091781;28;20056;-62
2023/09/11 06:02:58;;;;;;;0.68;0.68;;;19.50;99.90;;;;;;5090191;28;20055;-63
2023/09/11 06:05:25;;;;;;;0.70;0.70;;;20.00;99.90;;;;;;5091726;28;20054;-63
2023/09/11 06:07:51;;;;;;;4.32;1.63;;;19.80;99.90;;;;;;5091697;28;20058;-63
2023/09/11 06:10:17;;;;;;;0.98;0.77;;;19.80;99.90;;;;;;5091357;28;20393;-63
2023/09/11 06:12:43;;;;;;;0.45;0.45;;;19.80;99.90;;;;;;5091352;28;20145;-63
2023/09/11 06:15:09;;;;;;;0.50;0.50;;;20.00;99.90;;;;;;5091599;28;20055;-63
2023/09/11 06:17:35;;;;;;;0.95;0.90;;;20.20;99.90;;;;;;5091524;28;20089;-62
2023/09/11 06:20:00;;;;;;;0.82;0.82;;;19.80;99.90;;;;;;5091601;28;20044;-63
2023/09/11 06:22:26;;;;;;;2.55;1.35;;;20.10;99.90;;;;;;5091503;28;20052;-63
2023/09/11 06:24:52;;;;;;;0.55;0.55;;;20.00;99.90;;;;;;5094386;28;20128;-63
2023/09/11 06:27:18;;;;;;;0.95;0.85;;;20.00;99.90;;;;;;5095619;28;20052;-63
2023/09/11 06:29:44;;;;;;;0.60;0.60;;;20.10;99.90;;;;;;5095598;28;20055;-63
2023/09/11 06:32:15;;;;;;;0.73;0.52;;;20.10;99.90;;;;;;5095618;28;20035;-63
2023/09/11 06:34:41;;;;;;;1.30;1.20;;;20.40;99.90;;;;;;5095653;28;20040;-63
2023/09/11 06:37:09;;;;;;;0.95;0.95;;;20.50;99.90;;;;;;5095619;28;20040;-62
2023/09/11 06:39:35;;;;;;;3.05;1.58;;;20.80;99.90;;;;;;5095701;28;20617;-63
2023/09/11 06:42:00;;;;;;;0.55;0.55;;;20.70;99.90;;;;;;5095554;28;20036;-63
2023/09/11 06:44:26;;;;;;;0.80;0.65;;;20.70;99.90;;;;;;5095495;28;20040;-63
2023/09/11 06:46:52;;;;;;;0.40;0.40;;;21.00;99.90;;;;;;5095613;28;20388;-63
2023/09/11 06:49:17;;;;;;;0.40;0.40;;;20.70;99.90;;;;;;5095371;28;20050;-64
2023/09/11 06:51:43;;;;;;;0.47;0.47;;;20.90;99.90;;;;;;5095442;28;20043;-63
2023/09/11 06:54:09;;;;;;;0.65;0.55;;;21.10;99.90;;;;;;5095503;28;20471;-63
2023/09/11 06:56:36;;;;;;;0.95;0.65;;;21.50;99.90;;;;;;5095293;28;20444;-63
2023/09/11 06:59:02;;;;;;;0.40;0.40;;;21.40;99.90;;;;;;5095105;28;20050;-62
2023/09/11 07:01:29;;;;;;;1.50;0.55;;;21.50;99.90;;;;;;5094688;28;20130;-63
2023/09/11 07:03:54;;;;;;;0.82;0.80;;;21.70;99.90;;;;;;5094912;28;20082;-63
2023/09/11 07:06:20;;;;;;;0.55;0.50;;;21.80;99.90;;;;;;5094884;28;20047;-63
2023/09/11 07:08:46;;;;;;;1.20;1.10;;;21.90;99.90;;;;;;5094845;28;20044;-63
2023/09/11 07:11:11;;;;;;;1.40;1.30;;;21.90;99.90;;;;;;5094809;28;20549;-63
2023/09/11 07:13:38;;;;;;;1.05;0.82;;;22.10;99.90;;;;;;5094759;28;20036;-63
2023/09/11 07:16:04;;;;;;;1.08;1.00;;;22.20;99.90;;;;;;5094707;28;20827;-63
2023/09/11 07:18:31;;;;;;;1.27;1.17;;;22.30;99.90;;;;;;5094657;28;20182;-64
2023/09/11 07:20:57;;;;;;;1.00;0.95;;;22.30;99.90;;;;;;5094577;28;20047;-64
2023/09/11 07:23:24;;;;;;;1.95;1.77;;;22.30;99.90;;;;;;5094408;28;20047;-63
2023/09/11 07:25:56;;;;;;;3.95;1.67;;;22.80;99.90;;;;;;5094464;28;20051;-63
2023/09/11 07:28:26;;;;;;;1.63;1.00;;;22.50;99.90;;;;;;5093492;28;20469;-63
2023/09/11 07:30:53;;;;;;;1.02;1.00;;;22.40;99.90;;;;;;5094477;28;20052;-62
2023/09/11 07:33:19;;;;;;;4.10;2.40;;;22.40;99.90;;;;;;5094394;28;20055;-63
2023/09/11 07:35:45;;;;;;;1.38;1.38;;;22.40;99.90;;;;;;5093788;28;20400;-64
2023/09/11 07:38:11;;;;;;;3.20;1.30;;;22.40;99.90;;;;;;5094259;28;20044;-63
2023/09/11 07:40:38;;;;;;;3.90;2.53;;;23.00;99.90;;;;;;5094263;28;20048;-64
2023/09/11 07:43:04;;;;;;;4.10;2.40;;;22.90;99.90;;;;;;5094097;28;20048;-64
2023/09/11 07:45:30;;;;;;;1.67;1.58;;;23.00;99.90;;;;;;5093803;28;20500;-63
2023/09/11 07:47:55;;;;;;;2.67;2.47;;;22.80;99.90;;;;;;5094073;28;20044;-63
2023/09/11 07:50:21;;;;;;;3.40;1.00;;;23.00;99.90;;;;;;5093990;28;20480;-64
2023/09/11 07:52:47;;;;;;;2.15;1.65;;;23.00;99.90;;;;;;5093999;28;20087;-63
2023/09/11 07:55:14;;;;;;;0.90;0.90;;;23.20;99.90;;;;;;5093647;28;20080;-63
2023/09/11 07:57:43;;;;;;;4.75;2.38;;;23.20;99.90;;;;;;5093937;28;20464;-63
2023/09/11 08:00:09;;;;;;;3.95;2.85;;;23.50;99.90;;;;;;5093837;28;20071;-63
2023/09/11 08:02:35;;;;;;;1.60;1.40;;;23.20;99.90;;;;;;5093681;28;20197;-63
2023/09/11 08:05:01;;;;;;;1.63;1.52;;;23.60;99.90;;;;;;5093797;28;20139;-63
2023/09/11 08:07:26;;;;;;;1.75;1.38;;;23.50;99.90;;;;;;5092663;28;20175;-64
2023/09/11 08:09:52;;;;;;;1.20;1.10;;;23.80;99.90;;;;;;5092384;28;20052;-63
2023/09/11 08:12:18;;;;;;;1.05;0.88;;;23.80;99.90;;;;;;5093614;28;20127;-64
2023/09/11 08:14:44;;;;;;;3.30;1.23;;;23.80;99.90;;;;;;5093554;28;20169;-63
2023/09/11 08:17:10;;;;;;;1.75;0.93;;;24.10;99.90;;;;;;5093497;28;20055;-63
2023/09/11 08:19:36;;;;;;;3.22;2.08;;;24.00;99.90;;;;;;5093384;28;20052;-63
2023/09/11 08:22:03;;;;;;;1.27;1.13;;;24.00;99.90;;;;;;5093343;28;20039;-64
2023/09/11 08:24:29;;;;;;;0.93;0.93;;;24.30;99.90;;;;;;5093308;28;20087;-64
2023/09/11 08:26:55;;;;;;;5.30;2.47;;;24.70;99.90;;;;;;5093304;28;20141;-63
2023/09/11 08:29:20;;;;;;;2.20;1.85;;;24.70;99.90;;;;;;5093235;28;20172;-64
2023/09/11 08:31:47;;;;;;;3.53;0.88;;;24.70;99.90;;;;;;5092904;28;20056;-63
2023/09/11 08:34:13;;;;;;;0.93;0.93;;;25.00;99.90;;;;;;5093188;28;20050;-63
2023/09/11 08:36:39;;;;;;;0.88;0.88;;;24.90;99.90;;;;;;5093165;28;20052;-63
2023/09/11 08:39:05;;;;;;;1.30;1.20;;;25.00;99.90;;;;;;5093709;28;20059;-63
2023/09/11 08:41:31;;;;;;;1.30;0.88;;;25.10;99.90;;;;;;5093115;28;20055;-62
2023/09/11 08:43:57;;;;;;;2.47;1.13;;;25.10;99.90;;;;;;5091653;28;20523;-63
2023/09/11 08:46:23;;;;;;;3.10;0.98;;;25.10;99.90;;;;;;5092162;28;20044;-63
2023/09/11 08:48:57;;;;;;;2.10;1.98;;;24.80;99.90;;;;;;5092902;28;20139;-62
2023/09/11 08:51:32;;;;;;;1.42;1.33;;;25.50;99.90;;;;;;5092865;28;20047;-63
2023/09/11 08:54:02;;;;;;;1.88;1.60;;;25.20;99.90;;;;;;5091893;28;20484;-63
2023/09/11 08:56:28;;;;;;;1.40;1.20;;;25.10;99.90;;;;;;5092765;28;20056;-63
2023/09/11 08:58:54;;;;;;;1.52;1.42;;;25.40;99.90;;;;;;5092688;28;20040;-63
2023/09/11 09:01:21;;;;;;;2.83;2.20;;;25.70;99.90;;;;;;5092507;28;20044;-62
2023/09/11 09:03:49;;;;;;;1.27;1.17;;;25.50;99.90;;;;;;5092605;28;20092;-64
2023/09/11 09:06:16;;;;;;;4.13;1.67;;;25.90;99.90;;;;;;5092571;28;20054;-63
2023/09/11 09:08:43;;;;;;;1.73;1.10;;;25.80;99.90;;;;;;5092525;28;20047;-62
2023/09/11 09:11:10;;;;;;;1.88;1.75;;;26.00;99.90;;;;;;5092127;28;20492;-63
2023/09/11 09:13:36;;;;;;;0.80;0.80;;;26.00;99.90;;;;;;5092428;28;20044;-63
2023/09/11 09:16:02;;;;;;;2.10;1.83;;;26.00;99.90;;;;;;5092382;28;20510;-63
2023/09/11 09:18:28;;;;;;;1.58;1.48;;;26.10;99.90;;;;;;5092403;28;20056;-63
2023/09/11 09:20:58;;;;;;;2.03;1.55;;;26.10;99.90;;;;;;5092312;28;20092;-63
2023/09/11 09:23:35;;;;;;;3.17;1.63;;;26.30;99.90;;;;;;5092176;28;20178;-63
2023/09/11 09:26:08;;;;;;;1.30;1.17;;;26.30;99.90;;;;;;5092236;28;20051;-63
2023/09/11 09:28:34;;;;;;;1.88;1.52;;;26.10;99.90;;;;;;5092211;28;20062;-63
2023/09/11 09:31:01;;;;;;;2.15;1.75;;;26.20;99.90;;;;;;5092126;28;20048;-62
2023/09/11 09:33:27;;;;;;;0.80;0.80;;;26.20;99.90;;;;;;5091830;28;20503;-61
2023/09/11 09:35:52;;;;;;;1.52;1.33;;;26.30;99.90;;;;;;5092087;28;20044;-62
2023/09/11 09:38:21;;;;;;;3.33;2.35;;;26.30;99.90;;;;;;5092059;28;20196;-62
2023/09/11 09:40:47;;;;;;;1.73;0.88;;;26.50;99.90;;;;;;5091974;28;20132;-62
2023/09/11 09:43:18;;;;;;;1.30;0.95;;;26.40;99.90;;;;;;5091863;28;20087;-62
2023/09/11 09:45:44;;;;;;;1.30;1.20;;;26.40;99.90;;;;;;5092009;28;20130;-63
2023/09/11 09:48:21;;;;;;;1.40;1.30;;;26.50;99.90;;;;;;5090901;28;20055;-62
2023/09/11 09:51:01;;;;;;;3.58;1.52;;;26.40;99.90;;;;;;5090881;28;20383;-62
2023/09/11 09:53:32;;;;;;;3.03;1.67;;;26.50;99.90;;;;;;5091926;28;20032;-63
2023/09/11 09:56:03;;;;;;;2.72;0.98;;;26.60;99.90;;;;;;5091500;28;20579;-63
2023/09/11 09:58:30;;;;;;;0.77;0.77;;;27.20;99.90;;;;;;5091955;28;20094;-62
2023/09/11 10:01:04;;;;;;;2.30;1.40;;;26.60;99.90;;;;;;5091691;28;20088;-63
2023/09/11 10:03:45;;;;;;;1.27;1.08;;;26.80;99.90;;;;;;5091631;28;20052;-63
2023/09/11 10:06:22;;;;;;;2.20;1.67;;;26.90;99.90;;;;;;5091685;28;20504;-63
2023/09/11 10:09:12;;;;;;;1.75;1.63;;;27.00;99.90;;;;;;5091673;28;20082;-63
2023/09/11 10:11:40;;;;;;;2.92;2.10;;;26.90;99.90;;;;;;5091804;28;20052;-63
2023/09/11 10:14:08;;;;;;;1.73;1.50;;;27.20;99.90;;;;;;5091632;28;20047;-62
2023/09/11 10:16:34;;;;;;;6.68;4.45;;;27.10;99.90;;;;;;5091813;28;20492;-63
2023/09/11 10:19:01;;;;;;;1.85;1.33;;;27.00;99.90;;;;;;5091959;28;20050;-62
2023/09/11 10:21:28;;;;;;;0.65;0.63;;;27.10;99.90;;;;;;5091814;28;20040;-63
2023/09/11 10:23:54;;;;;;;1.90;1.50;;;27.10;99.90;;;;;;5091585;28;20044;-62
2023/09/11 10:26:44;;;;;;;1.85;1.73;;;27.60;99.90;;;;;;5091617;28;20071;-62
2023/09/11 10:29:34;;;;;;;1.55;1.40;;;27.30;99.90;;;;;;5091634;28;20104;-62
2023/09/11 10:32:07;;;;;;;1.80;1.25;;;27.20;99.90;;;;;;5091677;28;20047;-62
2023/09/11 10:34:36;;;;;;;1.30;1.00;;;27.20;99.90;;;;;;5091819;28;20083;-64
2023/09/11 10:37:04;;;;;;;0.93;0.93;;;27.00;99.90;;;;;;5091534;28;20083;-63
2023/09/11 10:39:30;;;;;;;1.15;1.05;;;27.40;99.90;;;;;;5091469;28;20476;-62
2023/09/11 10:41:55;;;;;;;1.10;1.00;;;27.20;99.90;;;;;;5091368;28;20052;-62
2023/09/11 10:44:21;;;;;;;3.85;2.85;;;27.50;99.90;;;;;;5091493;28;20037;-62
2023/09/11 10:46:51;;;;;;;1.70;1.38;;;27.40;99.90;;;;;;5091494;28;20076;-63
2023/09/11 10:49:19;;;;;;;1.58;1.48;;;27.50;99.90;;;;;;5090225;28;20044;-62
2023/09/11 10:51:47;;;;;;;2.80;2.10;;;27.20;99.90;;;;;;5091662;28;20040;-62
2023/09/11 10:54:23;;;;;;;2.22;1.52;;;27.50;99.90;;;;;;5091516;28;20123;-62
2023/09/11 10:56:50;;;;;;;1.50;1.40;;;27.70;99.90;;;;;;5091340;28;20091;-62
2023/09/11 10:59:19;;;;;;;2.13;1.73;;;27.70;99.90;;;;;;5091263;28;20048;-62
2023/09/11 11:01:46;;;;;;;1.30;1.20;;;27.40;99.90;;;;;;5089594;28;20148;-62
2023/09/11 11:04:14;;;;;;;1.25;1.10;;;27.60;99.90;;;;;;5091184;28;20055;-63
2023/09/11 11:06:46;;;;;;;2.22;1.58;;;28.20;99.90;;;;;;5091139;28;20052;-63
2023/09/11 11:09:30;;;;;;;2.55;1.58;;;27.90;99.90;;;;;;5091190;28;20051;-63
2023/09/11 11:12:03;;;;;;;1.10;1.08;;;28.00;99.90;;;;;;5094873;28;20834;-62
2023/09/11 11:14:29;;;;;;;1.85;0.90;;;27.60;99.90;;;;;;5094774;28;20048;-62
2023/09/11 11:17:08;;;;;;;0.55;0.50;;;27.70;99.90;;;;;;5094634;28;20051;-62
2023/09/11 11:19:35;;;;;;;0.73;0.68;;;27.80;99.90;;;;;;5094662;28;20540;-63
2023/09/11 11:22:04;;;;;;;0.60;0.60;;;28.00;99.90;;;;;;5094591;28;20052;-62
2023/09/11 11:24:34;;;;;;;0.73;0.73;;;27.70;99.90;;;;;;5094531;28;20043;-62
2023/09/11 11:27:03;;;;;;;1.60;0.85;;;27.90;99.90;;;;;;5094508;28;20062;-63
2023/09/11 11:29:29;;;;;;;1.13;1.00;;;28.10;99.90;;;;;;5094395;28;20040;-62
2023/09/11 11:31:58;;;;;;;0.85;0.77;;;27.90;99.90;;;;;;5094145;28;20476;-63
2023/09/11 11:34:31;;;;;;;0.55;0.55;;;28.00;99.90;;;;;;5094331;28;20126;-62
2023/09/11 11:36:58;;;;;;;0.40;0.40;;;28.10;99.90;;;;;;5094124;28;20403;-62
2023/09/11 11:39:27;;;;;;;0.40;0.40;;;28.00;99.90;;;;;;5094251;28;20444;-62
2023/09/11 11:41:54;;;;;;;0.70;0.70;;;27.80;99.90;;;;;;5093926;28;20349;-62
2023/09/11 11:44:22;;;;;;;0.80;0.80;;;28.00;99.90;;;;;;5094165;28;20134;-62
2023/09/11 11:46:48;;;;;;;0.75;0.73;;;28.20;99.90;;;;;;5094146;28;20159;-62
2023/09/11 11:49:21;;;;;;;0.40;0.40;;;28.00;99.90;;;;;;5094336;28;20482;-61
2023/09/11 11:51:47;;;;;;;1.10;1.00;;;28.10;99.90;;;;;;5094046;28;20051;-61
2023/09/11 11:54:26;;;;;;;0.77;0.38;;;27.90;99.90;;;;;;5093991;28;20051;-62
2023/09/11 11:57:00;;;;;;;1.40;0.90;;;28.10;99.90;;;;;;5094074;28;20072;-62
2023/09/11 11:59:34;;;;;;;0.22;0.22;;;28.20;99.90;;;;;;5093948;28;20507;-62
2023/09/11 12:02:00;;;;;;;1.70;1.27;;;28.30;99.90;;;;;;5093465;28;20052;-62
2023/09/11 12:04:26;;;;;;;0.65;0.65;;;28.00;99.90;;;;;;5093220;28;20055;-61
2023/09/11 12:06:54;;;;;;;0.55;0.55;;;28.10;99.90;;;;;;5093809;28;20446;-61
2023/09/11 12:09:20;;;;;;;0.52;0.52;;;27.80;99.90;;;;;;5093674;28;20071;-61
2023/09/11 12:11:47;;;;;;;0.22;0.22;;;27.70;99.90;;;;;;5093666;28;20055;-61
2023/09/11 12:14:14;;;;;;;1.45;0.95;;;28.10;99.90;;;;;;5093590;28;20135;-62
2023/09/11 12:16:40;;;;;;;0.20;0.20;;;27.80;99.90;;;;;;5093526;28;20055;-61
2023/09/11 12:19:06;;;;;;;0.63;0.45;;;27.60;99.90;;;;;;5093415;28;20043;-62
2023/09/11 12:21:32;;;;;;;1.02;0.90;;;27.80;99.90;;;;;;5093439;28;20055;-62
2023/09/11 12:24:01;;;;;;;1.17;1.08;;;28.10;99.90;;;;;;5093390;28;20040;-61
2023/09/11 12:26:28;;;;;;;0.90;0.82;;;28.10;99.90;;;;;;5093430;28;20468;-62
2023/09/11 12:28:55;;;;;;;0.73;0.73;;;27.80;99.90;;;;;;5093675;28;20044;-61
2023/09/11 12:31:21;;;;;;;1.00;0.90;;;28.20;99.90;;;;;;5093081;28;20492;-63
2023/09/11 12:33:54;;;;;;;9.52;0.77;;;28.00;99.90;;;;;;5092970;28;20500;-62
2023/09/11 12:36:20;;;;;;;0.30;0.30;;;28.00;99.90;;;;;;5093158;28;20181;-62
2023/09/11 12:38:49;;;;;;;0.40;0.40;;;27.90;99.90;;;;;;5093152;28;20055;-61
2023/09/11 12:41:16;;;;;;;0.98;0.50;;;28.00;99.90;;;;;;5092762;28;20515;-61
2023/09/11 12:43:43;;;;;;;1.55;0.95;;;27.70;99.90;;;;;;5093189;28;20040;-61
2023/09/11 12:46:11;;;;;;;1.40;0.50;;;28.00;99.90;;;;;;5092934;28;20058;-62
2023/09/11 12:48:44;;;;;;;0.43;0.43;;;28.60;99.90;;;;;;5092879;28;20044;-61